createdAt,value
2018-07-06T00:00:12.259Z,0.00
2018-07-06T00:01:12.262Z,0.00
2018-07-06T00:02:12.241Z,0.00
2018-07-06T00:03:12.228Z,0.00
2018-07-06T00:04:12.246Z,0.00
2018-07-06T00:05:12.204Z,0.00
2018-07-06T00:06:35.750Z,0.00
2018-07-06T00:07:12.185Z,0.00
2018-07-06T00:08:12.168Z,0.00
2018-07-06T00:09:12.201Z,0.00
2018-07-06T00:10:12.149Z,0.00
2018-07-06T00:11:12.144Z,0.00
2018-07-06T00:12:12.141Z,0.00
2018-07-06T00:13:12.113Z,0.00
2018-07-06T00:14:12.102Z,0.00
2018-07-06T00:15:12.117Z,0.00
2018-07-06T00:16:12.079Z,0.00
2018-07-06T00:17:12.069Z,0.00
2018-07-06T00:18:12.063Z,0.00
2018-07-06T00:19:12.047Z,0.00
2018-07-06T00:20:12.056Z,0.00
2018-07-06T00:21:12.021Z,0.00
2018-07-06T00:22:12.021Z,0.00
2018-07-06T00:23:12.002Z,0.00
2018-07-06T00:24:11.992Z,0.00
2018-07-06T00:25:12.005Z,0.00
2018-07-06T00:26:11.971Z,0.00
2018-07-06T00:27:11.961Z,0.00
2018-07-06T00:28:12.786Z,0.00
2018-07-06T00:29:11.933Z,0.00
2018-07-06T00:30:11.952Z,0.00
2018-07-06T00:31:11.941Z,0.00
2018-07-06T00:32:11.898Z,0.00
2018-07-06T00:33:11.892Z,0.00
2018-07-06T00:34:11.887Z,0.00
2018-07-06T00:35:11.910Z,0.00
2018-07-06T00:36:11.858Z,0.00
2018-07-06T00:37:11.847Z,0.00
2018-07-06T00:38:11.842Z,0.00
2018-07-06T00:39:11.827Z,0.00
2018-07-06T00:40:12.807Z,0.00
2018-07-06T00:41:12.806Z,0.00
2018-07-06T00:42:11.799Z,0.00
2018-07-06T00:43:11.780Z,0.00
2018-07-06T00:44:11.773Z,0.00
2018-07-06T00:45:11.826Z,0.00
2018-07-06T00:46:11.751Z,0.00
2018-07-06T00:47:11.740Z,0.00
2018-07-06T00:48:11.725Z,0.00
2018-07-06T00:49:11.708Z,0.00
2018-07-06T00:50:11.785Z,0.00
2018-07-06T00:51:11.691Z,0.00
2018-07-06T00:52:11.691Z,0.00
2018-07-06T00:53:12.703Z,0.00
2018-07-06T00:54:11.661Z,0.00
2018-07-06T00:55:25.797Z,0.00
2018-07-06T00:56:11.628Z,0.00
2018-07-06T00:57:11.624Z,0.00
2018-07-06T00:58:11.609Z,0.00
2018-07-06T00:59:11.622Z,0.00
2018-07-06T01:00:11.586Z,0.00
2018-07-06T01:01:13.305Z,0.00
2018-07-06T01:02:11.574Z,0.00
2018-07-06T01:03:11.554Z,0.00
2018-07-06T01:04:11.546Z,0.00
2018-07-06T01:05:11.531Z,0.00
2018-07-06T01:06:11.577Z,0.00
2018-07-06T01:07:11.509Z,0.00
2018-07-06T01:08:11.489Z,0.00
2018-07-06T01:09:11.492Z,0.00
2018-07-06T01:10:11.500Z,0.00
2018-07-06T01:11:12.794Z,0.00
2018-07-06T01:12:11.498Z,0.00
2018-07-06T01:13:11.448Z,0.00
2018-07-06T01:14:11.420Z,0.00
2018-07-06T01:15:11.412Z,0.00
2018-07-06T01:16:12.802Z,0.00
2018-07-06T01:17:11.393Z,0.00
2018-07-06T01:18:11.410Z,0.00
2018-07-06T01:19:11.370Z,0.00
2018-07-06T01:20:11.355Z,0.00
2018-07-06T01:21:13.313Z,0.00
2018-07-06T01:22:11.332Z,0.00
2018-07-06T01:23:11.325Z,0.00
2018-07-06T01:24:11.332Z,0.00
2018-07-06T01:25:11.309Z,0.00
2018-07-06T01:26:22.297Z,0.00
2018-07-06T01:27:11.288Z,0.00
2018-07-06T01:28:11.279Z,0.00
2018-07-06T01:29:11.261Z,0.00
2018-07-06T01:30:11.274Z,0.00
2018-07-06T01:31:11.813Z,0.00
2018-07-06T01:32:11.223Z,0.00
2018-07-06T01:33:12.209Z,0.00
2018-07-06T01:34:11.200Z,0.00
2018-07-06T01:35:11.185Z,0.00
2018-07-06T01:36:12.322Z,0.00
2018-07-06T01:37:11.162Z,0.00
2018-07-06T01:38:11.202Z,0.00
2018-07-06T01:39:11.159Z,0.00
2018-07-06T01:40:11.134Z,0.00
2018-07-06T01:41:11.116Z,0.00
2018-07-06T01:42:21.815Z,0.00
2018-07-06T01:43:12.096Z,0.00
2018-07-06T01:44:11.115Z,0.00
2018-07-06T01:45:11.100Z,0.00
2018-07-06T01:46:11.073Z,0.00
2018-07-06T01:47:25.301Z,0.00
2018-07-06T01:48:11.034Z,0.00
2018-07-06T01:49:11.025Z,0.00
2018-07-06T01:50:11.042Z,0.00
2018-07-06T01:51:11.760Z,0.00
2018-07-06T01:52:14.316Z,0.00
2018-07-06T01:53:10.985Z,0.00
2018-07-06T01:54:11.978Z,0.00
2018-07-06T01:55:10.968Z,0.00
2018-07-06T01:56:10.971Z,0.00
2018-07-06T01:57:14.317Z,0.00
2018-07-06T01:58:11.927Z,0.00
2018-07-06T01:59:11.921Z,0.00
2018-07-06T02:00:10.902Z,0.00
2018-07-06T02:01:10.891Z,0.00
2018-07-06T02:02:12.820Z,0.00
2018-07-06T02:03:10.895Z,0.00
2018-07-06T02:04:10.859Z,0.00
2018-07-06T02:05:10.849Z,0.00
2018-07-06T02:06:10.832Z,0.00
2018-07-06T02:07:12.813Z,0.00
2018-07-06T02:08:10.815Z,0.00
2018-07-06T02:09:10.828Z,0.00
2018-07-06T02:10:15.781Z,0.00
2018-07-06T02:11:11.761Z,0.00
2018-07-06T02:12:39.302Z,0.00
2018-07-06T02:13:10.766Z,0.00
2018-07-06T02:14:10.742Z,0.00
2018-07-06T02:15:10.729Z,0.00
2018-07-06T02:16:10.721Z,0.00
2018-07-06T02:17:10.743Z,0.00
2018-07-06T02:18:10.726Z,0.00
2018-07-06T02:19:10.685Z,0.00
2018-07-06T02:20:10.675Z,0.00
2018-07-06T02:21:10.664Z,0.00
2018-07-06T02:22:10.661Z,0.00
2018-07-06T02:23:10.667Z,0.00
2018-07-06T02:24:10.626Z,0.00
2018-07-06T02:25:10.615Z,0.00
2018-07-06T02:26:10.601Z,0.00
2018-07-06T02:27:10.590Z,0.00
2018-07-06T02:28:10.621Z,0.00
2018-07-06T02:29:10.565Z,0.00
2018-07-06T02:30:10.561Z,0.00
2018-07-06T02:31:10.546Z,0.00
2018-07-06T02:32:10.539Z,0.00
2018-07-06T02:33:10.554Z,0.00
2018-07-06T02:34:10.534Z,0.00
2018-07-06T02:35:10.508Z,0.00
2018-07-06T02:36:10.487Z,0.00
2018-07-06T02:37:10.481Z,0.00
2018-07-06T02:38:10.494Z,0.00
2018-07-06T02:39:10.452Z,0.00
2018-07-06T02:40:10.465Z,0.00
2018-07-06T02:41:10.436Z,0.00
2018-07-06T02:42:10.428Z,0.00
2018-07-06T02:43:10.436Z,0.00
2018-07-06T02:44:10.397Z,0.00
2018-07-06T02:45:10.392Z,0.00
2018-07-06T02:46:10.387Z,0.00
2018-07-06T02:47:10.381Z,0.00
2018-07-06T02:48:10.391Z,0.00
2018-07-06T02:49:10.346Z,0.00
2018-07-06T02:50:10.338Z,0.00
2018-07-06T02:51:10.322Z,0.00
2018-07-06T02:52:10.311Z,0.00
2018-07-06T02:53:10.314Z,0.00
2018-07-06T02:54:10.315Z,0.00
2018-07-06T02:55:10.298Z,0.00
2018-07-06T02:56:10.263Z,0.00
2018-07-06T02:57:10.254Z,0.00
2018-07-06T02:58:10.254Z,0.00
2018-07-06T02:59:10.267Z,0.00
2018-07-06T03:00:10.221Z,0.00
2018-07-06T03:01:10.203Z,0.00
2018-07-06T03:02:10.193Z,0.00
2018-07-06T03:03:10.192Z,0.00
2018-07-06T03:04:10.195Z,0.00
2018-07-06T03:05:10.156Z,0.00
2018-07-06T03:06:10.143Z,0.00
2018-07-06T03:07:10.135Z,0.00
2018-07-06T03:08:10.122Z,0.00
2018-07-06T03:09:32.796Z,0.00
2018-07-06T03:10:10.230Z,0.00
2018-07-06T03:11:10.106Z,0.00
2018-07-06T03:12:10.074Z,0.00
2018-07-06T03:13:10.070Z,0.00
2018-07-06T03:14:10.091Z,0.00
2018-07-06T03:15:10.052Z,0.00
2018-07-06T03:16:10.034Z,0.00
2018-07-06T03:17:10.018Z,0.00
2018-07-06T03:18:10.016Z,0.00
2018-07-06T03:19:10.032Z,0.00
2018-07-06T03:20:09.987Z,0.00
2018-07-06T03:21:09.985Z,0.00
2018-07-06T03:22:09.975Z,0.00
2018-07-06T03:23:09.957Z,0.00
2018-07-06T03:24:10.000Z,0.00
2018-07-06T03:25:09.925Z,0.00
2018-07-06T03:26:09.919Z,0.00
2018-07-06T03:27:09.916Z,0.00
2018-07-06T03:28:10.013Z,0.00
2018-07-06T03:29:09.885Z,0.00
2018-07-06T03:30:09.905Z,0.00
2018-07-06T03:31:09.863Z,0.00
2018-07-06T03:32:09.850Z,0.00
2018-07-06T03:33:09.844Z,0.00
2018-07-06T03:34:09.836Z,0.00
2018-07-06T03:35:09.844Z,0.00
2018-07-06T03:36:09.806Z,0.00
2018-07-06T03:37:09.794Z,0.00
2018-07-06T03:38:09.783Z,0.00
2018-07-06T03:39:09.764Z,0.00
2018-07-06T03:40:09.792Z,0.00
2018-07-06T03:41:09.755Z,0.00
2018-07-06T03:42:09.753Z,0.00
2018-07-06T03:43:09.731Z,0.00
2018-07-06T03:44:09.714Z,0.00
2018-07-06T03:45:09.734Z,0.00
2018-07-06T03:46:09.684Z,0.00
2018-07-06T03:47:09.681Z,0.00
2018-07-06T03:48:09.748Z,0.00
2018-07-06T03:49:09.660Z,0.00
2018-07-06T03:50:09.669Z,0.00
2018-07-06T03:51:09.635Z,0.00
2018-07-06T03:52:09.619Z,0.00
2018-07-06T03:53:10.481Z,0.00
2018-07-06T03:54:09.598Z,0.00
2018-07-06T03:55:09.621Z,0.00
2018-07-06T03:56:09.581Z,0.00
2018-07-06T03:57:09.622Z,0.00
2018-07-06T03:58:09.558Z,0.00
2018-07-06T03:59:09.538Z,0.00
2018-07-06T04:00:09.564Z,0.00
2018-07-06T04:01:09.630Z,0.00
2018-07-06T04:02:09.511Z,0.00
2018-07-06T04:03:09.545Z,0.00
2018-07-06T04:04:09.486Z,0.00
2018-07-06T04:05:09.475Z,0.00
2018-07-06T04:06:09.490Z,0.00
2018-07-06T04:07:09.457Z,0.00
2018-07-06T04:08:09.440Z,0.00
2018-07-06T04:09:09.494Z,0.00
2018-07-06T04:10:09.419Z,5.62
2018-07-06T04:11:09.434Z,5.62
2018-07-06T04:12:09.401Z,5.62
2018-07-06T04:13:09.388Z,5.62
2018-07-06T04:14:09.380Z,5.62
2018-07-06T04:15:09.365Z,5.62
2018-07-06T04:16:09.470Z,5.62
2018-07-06T04:17:09.341Z,5.62
2018-07-06T04:18:09.327Z,5.62
2018-07-06T04:19:09.317Z,5.62
2018-07-06T04:20:09.308Z,5.62
2018-07-06T04:21:09.327Z,5.62
2018-07-06T04:22:09.299Z,5.62
2018-07-06T04:23:09.270Z,5.62
2018-07-06T04:24:09.265Z,5.62
2018-07-06T04:25:09.254Z,5.62
2018-07-06T04:26:09.260Z,11.25
2018-07-06T04:27:09.228Z,5.62
2018-07-06T04:28:09.214Z,5.62
2018-07-06T04:29:09.216Z,5.62
2018-07-06T04:30:09.192Z,5.62
2018-07-06T04:31:09.221Z,5.62
2018-07-06T04:32:09.173Z,5.62
2018-07-06T04:33:09.154Z,5.62
2018-07-06T04:34:09.149Z,5.62
2018-07-06T04:35:09.149Z,11.25
2018-07-06T04:36:09.129Z,11.25
2018-07-06T04:37:09.134Z,11.25
2018-07-06T04:38:09.100Z,16.88
2018-07-06T04:39:09.084Z,16.88
2018-07-06T04:40:09.080Z,16.88
2018-07-06T04:41:09.075Z,16.88
2018-07-06T04:42:09.326Z,16.88
2018-07-06T04:43:09.047Z,16.88
2018-07-06T04:44:09.038Z,16.88
2018-07-06T04:45:09.017Z,16.88
2018-07-06T04:46:09.011Z,16.88
2018-07-06T04:47:09.032Z,16.88
2018-07-06T04:48:09.005Z,16.88
2018-07-06T04:49:08.973Z,16.88
2018-07-06T04:50:08.966Z,11.25
2018-07-06T04:51:08.959Z,11.25
2018-07-06T04:52:08.968Z,11.25
2018-07-06T04:53:08.929Z,11.25
2018-07-06T04:54:08.924Z,11.25
2018-07-06T04:55:08.908Z,11.25
2018-07-06T04:56:08.899Z,11.25
2018-07-06T04:57:08.916Z,11.25
2018-07-06T04:58:08.873Z,11.25
2018-07-06T04:59:08.864Z,11.25
2018-07-06T05:00:08.872Z,11.25
2018-07-06T05:01:08.842Z,11.25
2018-07-06T05:02:08.863Z,11.25
2018-07-06T05:03:08.815Z,16.88
2018-07-06T05:04:08.806Z,16.88
2018-07-06T05:05:08.790Z,16.88
2018-07-06T05:06:08.784Z,16.88
2018-07-06T05:07:08.796Z,16.88
2018-07-06T05:08:08.763Z,16.88
2018-07-06T05:09:08.751Z,16.88
2018-07-06T05:10:08.739Z,16.88
2018-07-06T05:11:08.725Z,16.88
2018-07-06T05:12:08.786Z,16.88
2018-07-06T05:13:08.713Z,16.88
2018-07-06T05:14:08.691Z,16.88
2018-07-06T05:15:08.676Z,16.88
2018-07-06T05:16:08.668Z,16.88
2018-07-06T05:17:08.661Z,16.88
2018-07-06T05:18:08.704Z,16.88
2018-07-06T05:19:08.632Z,22.50
2018-07-06T05:20:08.627Z,22.50
2018-07-06T05:21:08.631Z,22.50
2018-07-06T05:22:08.619Z,22.50
2018-07-06T05:23:08.612Z,22.50
2018-07-06T05:24:08.582Z,22.50
2018-07-06T05:25:08.569Z,16.88
2018-07-06T05:26:08.554Z,16.88
2018-07-06T05:27:08.543Z,16.88
2018-07-06T05:28:08.578Z,16.88
2018-07-06T05:29:08.521Z,11.25
2018-07-06T05:30:08.517Z,11.25
2018-07-06T05:31:08.495Z,11.25
2018-07-06T05:32:08.492Z,5.62
2018-07-06T05:33:08.499Z,5.62
2018-07-06T05:34:08.475Z,5.62
2018-07-06T05:35:08.450Z,5.62
2018-07-06T05:36:08.437Z,5.62
2018-07-06T05:37:08.436Z,5.62
2018-07-06T05:38:08.446Z,5.62
2018-07-06T05:39:08.454Z,11.25
2018-07-06T05:40:08.402Z,11.25
2018-07-06T05:41:08.385Z,11.25
2018-07-06T05:42:08.378Z,16.88
2018-07-06T05:43:08.389Z,16.88
2018-07-06T05:44:08.358Z,22.50
2018-07-06T05:45:08.348Z,22.50
2018-07-06T05:46:08.348Z,22.50
2018-07-06T05:47:08.316Z,22.50
2018-07-06T05:48:08.811Z,22.50
2018-07-06T05:49:08.296Z,22.50
2018-07-06T05:50:08.281Z,22.50
2018-07-06T05:51:08.274Z,22.50
2018-07-06T05:52:08.270Z,22.50
2018-07-06T05:53:08.295Z,22.50
2018-07-06T05:54:08.236Z,22.50
2018-07-06T05:55:08.223Z,22.50
2018-07-06T05:56:08.218Z,16.88
2018-07-06T05:57:08.207Z,16.88
2018-07-06T05:58:08.197Z,16.88
2018-07-06T05:59:08.254Z,22.50
2018-07-06T06:00:08.167Z,22.50
2018-07-06T06:01:08.162Z,28.12
2018-07-06T06:02:08.154Z,28.12
2018-07-06T06:03:08.133Z,33.75
2018-07-06T06:04:08.156Z,33.75
2018-07-06T06:05:08.123Z,33.75
2018-07-06T06:06:08.120Z,39.38
2018-07-06T06:07:08.090Z,39.38
2018-07-06T06:08:08.081Z,39.38
2018-07-06T06:09:08.798Z,39.38
2018-07-06T06:10:08.061Z,39.38
2018-07-06T06:11:08.042Z,39.38
2018-07-06T06:12:08.047Z,39.38
2018-07-06T06:13:08.036Z,39.38
2018-07-06T06:14:08.037Z,33.75
2018-07-06T06:15:07.999Z,33.75
2018-07-06T06:16:07.994Z,33.75
2018-07-06T06:17:07.981Z,33.75
2018-07-06T06:18:07.967Z,33.75
2018-07-06T06:19:08.003Z,33.75
2018-07-06T06:20:07.944Z,33.75
2018-07-06T06:21:07.935Z,33.75
2018-07-06T06:22:07.935Z,28.12
2018-07-06T06:23:07.910Z,28.12
2018-07-06T06:24:07.899Z,28.12
2018-07-06T06:25:07.956Z,28.12
2018-07-06T06:26:07.882Z,28.12
2018-07-06T06:27:07.981Z,28.12
2018-07-06T06:28:07.848Z,28.12
2018-07-06T06:29:07.841Z,28.12
2018-07-06T06:30:07.833Z,28.12
2018-07-06T06:31:07.866Z,28.12
2018-07-06T06:32:07.823Z,28.12
2018-07-06T06:33:07.837Z,28.12
2018-07-06T06:34:07.790Z,28.12
2018-07-06T06:35:07.768Z,28.12
2018-07-06T06:36:07.786Z,28.12
2018-07-06T06:37:07.763Z,28.12
2018-07-06T06:38:07.746Z,28.12
2018-07-06T06:39:07.726Z,28.12
2018-07-06T06:40:07.718Z,22.50
2018-07-06T06:41:07.881Z,22.50
2018-07-06T06:42:07.694Z,22.50
2018-07-06T06:43:07.702Z,22.50
2018-07-06T06:44:07.669Z,22.50
2018-07-06T06:45:07.663Z,28.12
2018-07-06T06:46:07.645Z,28.12
2018-07-06T06:47:07.780Z,22.50
2018-07-06T06:48:07.621Z,22.50
2018-07-06T06:49:07.634Z,22.50
2018-07-06T06:50:07.604Z,22.50
2018-07-06T06:51:07.595Z,22.50
2018-07-06T06:52:07.583Z,28.12
2018-07-06T06:53:07.729Z,28.12
2018-07-06T06:54:07.559Z,28.12
2018-07-06T06:55:07.565Z,28.12
2018-07-06T06:56:07.533Z,28.12
2018-07-06T06:57:07.524Z,28.12
2018-07-06T06:58:07.539Z,33.75
2018-07-06T06:59:07.574Z,33.75
2018-07-06T07:00:07.491Z,33.75
2018-07-06T07:01:07.516Z,33.75
2018-07-06T07:02:07.466Z,33.75
2018-07-06T07:03:07.481Z,33.75
2018-07-06T07:04:07.440Z,33.75
2018-07-06T07:05:07.435Z,33.75
2018-07-06T07:06:07.427Z,33.75
2018-07-06T07:07:07.427Z,33.75
2018-07-06T07:08:07.438Z,33.75
2018-07-06T07:09:07.379Z,28.12
2018-07-06T07:10:07.376Z,28.12
2018-07-06T07:11:07.362Z,28.12
2018-07-06T07:12:08.292Z,28.12
2018-07-06T07:13:07.351Z,28.12
2018-07-06T07:14:07.432Z,22.50
2018-07-06T07:15:07.326Z,22.50
2018-07-06T07:16:07.309Z,16.88
2018-07-06T07:17:07.299Z,16.88
2018-07-06T07:18:07.281Z,16.88
2018-07-06T07:19:07.290Z,16.88
2018-07-06T07:20:07.313Z,16.88
2018-07-06T07:21:07.250Z,11.25
2018-07-06T07:22:07.239Z,11.25
2018-07-06T07:23:07.238Z,11.25
2018-07-06T07:24:07.227Z,11.25
2018-07-06T07:25:07.265Z,11.25
2018-07-06T07:26:07.202Z,11.25
2018-07-06T07:27:07.187Z,11.25
2018-07-06T07:28:07.172Z,16.88
2018-07-06T07:29:07.162Z,16.88
2018-07-06T07:30:07.216Z,16.88
2018-07-06T07:31:07.171Z,16.88
2018-07-06T07:32:07.131Z,22.50
2018-07-06T07:33:07.114Z,22.50
2018-07-06T07:34:07.097Z,22.50
2018-07-06T07:35:07.120Z,22.50
2018-07-06T07:36:07.091Z,22.50
2018-07-06T07:37:07.080Z,22.50
2018-07-06T07:38:07.058Z,22.50
2018-07-06T07:39:07.043Z,22.50
2018-07-06T07:40:07.058Z,28.12
2018-07-06T07:41:07.052Z,28.12
2018-07-06T07:42:07.018Z,28.12
2018-07-06T07:43:07.002Z,28.12
2018-07-06T07:44:06.993Z,28.12
2018-07-06T07:45:06.984Z,28.12
2018-07-06T07:46:07.012Z,28.12
2018-07-06T07:47:06.955Z,28.12
2018-07-06T07:48:07.009Z,28.12
2018-07-06T07:49:07.800Z,33.75
2018-07-06T07:50:06.922Z,39.38
2018-07-06T07:51:06.911Z,33.75
2018-07-06T07:52:06.920Z,33.75
2018-07-06T07:53:06.886Z,33.75
2018-07-06T07:54:06.878Z,33.75
2018-07-06T07:55:06.877Z,33.75
2018-07-06T07:56:06.851Z,33.75
2018-07-06T07:57:06.873Z,33.75
2018-07-06T07:58:06.828Z,33.75
2018-07-06T07:59:06.823Z,33.75
2018-07-06T08:00:07.442Z,33.75
2018-07-06T08:01:07.015Z,33.75
2018-07-06T08:02:06.814Z,33.75
2018-07-06T08:03:06.787Z,39.38
2018-07-06T08:04:06.764Z,39.38
2018-07-06T08:05:06.749Z,39.38
2018-07-06T08:06:06.755Z,39.38
2018-07-06T08:07:06.782Z,39.38
2018-07-06T08:08:06.717Z,45.00
2018-07-06T08:09:06.702Z,45.00
2018-07-06T08:10:06.700Z,45.00
2018-07-06T08:11:06.693Z,50.62
2018-07-06T08:12:06.673Z,50.62
2018-07-06T08:13:06.686Z,56.25
2018-07-06T08:14:06.647Z,50.62
2018-07-06T08:15:06.641Z,45.00
2018-07-06T08:16:06.632Z,45.00
2018-07-06T08:17:06.613Z,39.38
2018-07-06T08:18:06.666Z,39.38
2018-07-06T08:19:06.590Z,33.75
2018-07-06T08:20:06.588Z,39.38
2018-07-06T08:21:06.570Z,39.38
2018-07-06T08:22:06.562Z,39.38
2018-07-06T08:23:06.566Z,33.75
2018-07-06T08:24:06.574Z,39.38
2018-07-06T08:25:06.522Z,39.38
2018-07-06T08:26:06.517Z,39.38
2018-07-06T08:27:06.502Z,39.38
2018-07-06T08:28:06.486Z,39.38
2018-07-06T08:29:06.488Z,39.38
2018-07-06T08:30:06.557Z,39.38
2018-07-06T08:31:06.457Z,33.75
2018-07-06T08:32:06.449Z,33.75
2018-07-06T08:33:06.431Z,33.75
2018-07-06T08:34:06.425Z,33.75
2018-07-06T08:35:06.438Z,33.75
2018-07-06T08:36:06.415Z,28.12
2018-07-06T08:37:06.385Z,28.12
2018-07-06T08:38:06.376Z,28.12
2018-07-06T08:39:06.371Z,28.12
2018-07-06T08:40:06.386Z,28.12
2018-07-06T08:41:06.342Z,28.12
2018-07-06T08:42:06.358Z,28.12
2018-07-06T08:43:06.319Z,28.12
2018-07-06T08:44:06.303Z,28.12
2018-07-06T08:45:06.322Z,33.75
2018-07-06T08:46:06.286Z,33.75
2018-07-06T08:47:06.269Z,33.75
2018-07-06T08:48:06.277Z,33.75
2018-07-06T08:49:06.250Z,33.75
2018-07-06T08:50:06.266Z,33.75
2018-07-06T08:51:06.230Z,33.75
2018-07-06T08:52:06.220Z,33.75
2018-07-06T08:53:06.205Z,33.75
2018-07-06T08:54:06.212Z,33.75
2018-07-06T08:55:06.228Z,33.75
2018-07-06T08:56:06.175Z,33.75
2018-07-06T08:57:06.154Z,33.75
2018-07-06T08:58:06.172Z,39.38
2018-07-06T08:59:06.131Z,39.38
2018-07-06T09:00:06.140Z,39.38
2018-07-06T09:01:06.139Z,39.38
2018-07-06T09:02:06.103Z,33.75
2018-07-06T09:03:06.097Z,33.75
2018-07-06T09:04:06.084Z,33.75
2018-07-06T09:05:06.075Z,33.75
2018-07-06T09:06:06.111Z,33.75
2018-07-06T09:07:06.052Z,33.75
2018-07-06T09:08:06.034Z,33.75
2018-07-06T09:09:06.023Z,33.75
2018-07-06T09:10:06.014Z,39.38
2018-07-06T09:11:06.007Z,45.00
2018-07-06T09:12:06.052Z,50.62
2018-07-06T09:13:06.064Z,45.00
2018-07-06T09:14:05.959Z,50.62
2018-07-06T09:15:05.960Z,39.38
2018-07-06T09:16:05.943Z,45.00
2018-07-06T09:17:05.927Z,45.00
2018-07-06T09:18:05.960Z,39.38
2018-07-06T09:19:05.908Z,45.00
2018-07-06T09:20:06.119Z,45.00
2018-07-06T09:21:05.883Z,45.00
2018-07-06T09:22:05.876Z,45.00
2018-07-06T09:23:05.889Z,45.00
2018-07-06T09:24:05.864Z,45.00
2018-07-06T09:25:05.840Z,45.00
2018-07-06T09:26:05.960Z,50.62
2018-07-06T09:27:05.816Z,45.00
2018-07-06T09:28:05.832Z,39.38
2018-07-06T09:29:05.804Z,39.38
2018-07-06T09:30:05.805Z,39.38
2018-07-06T09:31:05.769Z,33.75
2018-07-06T09:32:05.764Z,33.75
2018-07-06T09:33:05.815Z,33.75
2018-07-06T09:34:05.734Z,33.75
2018-07-06T09:35:05.728Z,39.38
2018-07-06T09:36:05.742Z,39.38
2018-07-06T09:37:05.728Z,33.75
2018-07-06T09:38:05.697Z,33.75
2018-07-06T09:39:05.765Z,33.75
2018-07-06T09:40:05.680Z,33.75
2018-07-06T09:41:08.376Z,33.75
2018-07-06T09:42:08.307Z,33.75
2018-07-06T09:43:05.643Z,33.75
2018-07-06T09:44:05.628Z,39.38
2018-07-06T09:45:05.649Z,39.38
2018-07-06T09:46:08.310Z,39.38
2018-07-06T09:47:05.616Z,39.38
2018-07-06T09:48:05.584Z,45.00
2018-07-06T09:49:05.573Z,50.62
2018-07-06T09:50:05.604Z,50.62
2018-07-06T09:51:05.543Z,56.25
2018-07-06T09:52:05.542Z,61.88
2018-07-06T09:53:05.524Z,61.88
2018-07-06T09:54:05.512Z,61.88
2018-07-06T09:55:05.498Z,67.50
2018-07-06T09:56:05.544Z,67.50
2018-07-06T09:57:05.475Z,67.50
2018-07-06T09:58:05.535Z,73.12
2018-07-06T09:59:05.456Z,78.75
2018-07-06T10:00:05.447Z,73.12
2018-07-06T10:01:05.427Z,73.12
2018-07-06T10:02:05.448Z,78.75
2018-07-06T10:03:05.414Z,84.38
2018-07-06T10:04:05.402Z,84.38
2018-07-06T10:05:05.394Z,78.75
2018-07-06T10:06:05.374Z,73.12
2018-07-06T10:07:05.389Z,73.12
2018-07-06T10:08:05.358Z,61.88
2018-07-06T10:09:05.347Z,61.88
2018-07-06T10:10:05.336Z,67.50
2018-07-06T10:11:05.422Z,67.50
2018-07-06T10:12:05.357Z,73.12
2018-07-06T10:13:05.298Z,90.00
2018-07-06T10:14:05.293Z,90.00
2018-07-06T10:15:05.278Z,90.00
2018-07-06T10:16:05.264Z,95.62
2018-07-06T10:17:05.259Z,90.00
2018-07-06T10:18:05.288Z,90.00
2018-07-06T10:19:05.229Z,84.38
2018-07-06T10:20:05.218Z,78.75
2018-07-06T10:21:05.205Z,78.75
2018-07-06T10:22:05.198Z,84.38
2018-07-06T10:23:05.185Z,90.00
2018-07-06T10:24:05.209Z,95.62
2018-07-06T10:25:05.164Z,95.62
2018-07-06T10:26:05.147Z,90.00
2018-07-06T10:27:05.142Z,78.75
2018-07-06T10:28:05.126Z,78.75
2018-07-06T10:29:05.143Z,73.12
2018-07-06T10:30:05.120Z,84.38
2018-07-06T10:31:05.105Z,95.62
2018-07-06T10:32:05.083Z,106.88
2018-07-06T10:33:05.097Z,95.62
2018-07-06T10:34:05.086Z,84.38
2018-07-06T10:35:05.047Z,84.38
2018-07-06T10:36:05.037Z,78.75
2018-07-06T10:37:05.028Z,73.12
2018-07-06T10:38:05.029Z,78.75
2018-07-06T10:39:05.057Z,101.25
2018-07-06T10:40:05.090Z,112.50
2018-07-06T10:41:04.979Z,101.25
2018-07-06T10:42:04.966Z,95.62
2018-07-06T10:43:04.964Z,106.88
2018-07-06T10:44:04.962Z,101.25
2018-07-06T10:45:04.978Z,112.50
2018-07-06T10:46:04.925Z,90.00
2018-07-06T10:47:04.913Z,90.00
2018-07-06T10:48:04.899Z,78.75
2018-07-06T10:49:04.892Z,78.75
2018-07-06T10:50:04.885Z,90.00
2018-07-06T10:51:04.906Z,84.38
2018-07-06T10:52:04.856Z,90.00
2018-07-06T10:53:04.838Z,123.75
2018-07-06T10:54:06.816Z,118.12
2018-07-06T10:55:04.817Z,118.12
2018-07-06T10:56:04.848Z,106.88
2018-07-06T10:57:04.815Z,90.00
2018-07-06T10:58:05.319Z,84.38
2018-07-06T10:59:04.777Z,84.38
2018-07-06T11:00:04.769Z,84.38
2018-07-06T11:01:04.756Z,84.38
2018-07-06T11:02:04.769Z,84.38
2018-07-06T11:03:04.756Z,106.88
2018-07-06T11:04:04.721Z,84.38
2018-07-06T11:05:04.827Z,84.38
2018-07-06T11:06:04.700Z,84.38
2018-07-06T11:07:04.724Z,84.38
2018-07-06T11:08:04.677Z,90.00
2018-07-06T11:09:04.671Z,118.12
2018-07-06T11:10:04.646Z,101.25
2018-07-06T11:11:04.643Z,90.00
2018-07-06T11:12:04.629Z,84.38
2018-07-06T11:13:04.648Z,90.00
2018-07-06T11:14:04.607Z,84.38
2018-07-06T11:15:04.606Z,84.38
2018-07-06T11:16:04.582Z,84.38
2018-07-06T11:17:04.569Z,84.38
2018-07-06T11:18:04.616Z,84.38
2018-07-06T11:19:04.598Z,78.75
2018-07-06T11:20:04.540Z,78.75
2018-07-06T11:21:04.529Z,73.12
2018-07-06T11:22:04.515Z,73.12
2018-07-06T11:23:04.506Z,78.75
2018-07-06T11:24:04.513Z,84.38
2018-07-06T11:25:04.535Z,90.00
2018-07-06T11:26:04.469Z,90.00
2018-07-06T11:27:04.460Z,90.00
2018-07-06T11:28:04.466Z,90.00
2018-07-06T11:29:04.476Z,90.00
2018-07-06T11:30:04.424Z,90.00
2018-07-06T11:31:04.415Z,84.38
2018-07-06T11:32:04.464Z,90.00
2018-07-06T11:33:04.388Z,90.00
2018-07-06T11:34:04.406Z,84.38
2018-07-06T11:35:04.405Z,78.75
2018-07-06T11:36:04.351Z,112.50
2018-07-06T11:37:04.347Z,112.50
2018-07-06T11:38:04.375Z,118.12
2018-07-06T11:39:04.327Z,129.38
2018-07-06T11:40:04.323Z,101.25
2018-07-06T11:41:04.335Z,95.62
2018-07-06T11:42:04.290Z,101.25
2018-07-06T11:43:04.292Z,90.00
2018-07-06T11:44:04.260Z,84.38
2018-07-06T11:45:04.317Z,95.62
2018-07-06T11:46:04.289Z,106.88
2018-07-06T11:47:04.226Z,129.38
2018-07-06T11:48:04.221Z,135.00
2018-07-06T11:49:04.228Z,140.62
2018-07-06T11:50:05.187Z,84.38
2018-07-06T11:51:04.189Z,90.00
2018-07-06T11:52:04.256Z,95.62
2018-07-06T11:53:04.167Z,118.12
2018-07-06T11:54:04.148Z,135.00
2018-07-06T11:55:04.157Z,84.38
2018-07-06T11:56:04.164Z,84.38
2018-07-06T11:57:04.118Z,90.00
2018-07-06T11:58:04.134Z,90.00
2018-07-06T11:59:04.094Z,135.00
2018-07-06T12:00:04.105Z,135.00
2018-07-06T12:01:10.805Z,123.75
2018-07-06T12:02:05.068Z,84.38
2018-07-06T12:03:04.083Z,84.38
2018-07-06T12:04:04.219Z,95.62
2018-07-06T12:05:04.093Z,95.62
2018-07-06T12:06:04.017Z,106.88
2018-07-06T12:07:04.005Z,84.38
2018-07-06T12:08:04.038Z,84.38
2018-07-06T12:09:03.978Z,95.62
2018-07-06T12:10:03.967Z,95.62
2018-07-06T12:11:03.970Z,101.25
2018-07-06T12:12:03.956Z,90.00
2018-07-06T12:13:03.936Z,90.00
2018-07-06T12:14:03.989Z,135.00
2018-07-06T12:15:03.937Z,84.38
2018-07-06T12:16:03.916Z,73.12
2018-07-06T12:17:03.898Z,73.12
2018-07-06T12:18:03.878Z,78.75
2018-07-06T12:19:03.872Z,140.62
2018-07-06T12:20:03.883Z,140.62
2018-07-06T12:21:03.900Z,140.62
2018-07-06T12:22:03.830Z,140.62
2018-07-06T12:23:03.856Z,140.62
2018-07-06T12:24:03.846Z,140.62
2018-07-06T12:25:03.834Z,140.62
2018-07-06T12:26:03.788Z,140.62
2018-07-06T12:27:03.775Z,146.25
2018-07-06T12:28:03.765Z,90.00
2018-07-06T12:29:03.800Z,73.12
2018-07-06T12:30:03.832Z,95.62
2018-07-06T12:31:03.727Z,112.50
2018-07-06T12:32:03.714Z,90.00
2018-07-06T12:33:03.726Z,112.50
2018-07-06T12:34:03.693Z,140.62
2018-07-06T12:35:03.703Z,135.00
2018-07-06T12:36:03.745Z,101.25
2018-07-06T12:37:03.657Z,118.12
2018-07-06T12:38:03.658Z,157.50
2018-07-06T12:39:03.639Z,118.12
2018-07-06T12:40:03.627Z,90.00
2018-07-06T12:41:03.613Z,84.38
2018-07-06T12:42:03.629Z,84.38
2018-07-06T12:43:03.588Z,78.75
2018-07-06T12:44:03.579Z,106.88
2018-07-06T12:45:03.572Z,118.12
2018-07-06T12:46:03.561Z,95.62
2018-07-06T12:47:03.608Z,73.12
2018-07-06T12:48:03.552Z,95.62
2018-07-06T12:49:03.523Z,84.38
2018-07-06T12:50:03.518Z,90.00
2018-07-06T12:51:03.495Z,90.00
2018-07-06T12:52:03.489Z,90.00
2018-07-06T12:53:03.518Z,90.00
2018-07-06T12:54:03.483Z,90.00
2018-07-06T12:55:03.454Z,90.00
2018-07-06T12:56:03.447Z,95.62
2018-07-06T12:57:03.438Z,123.75
2018-07-06T12:58:03.496Z,95.62
2018-07-06T12:59:03.421Z,95.62
2018-07-06T13:00:03.410Z,95.62